Time;durP1;ratioP1;P1;durP2;ratioP2;P2;SDS_P1;SDS_P2;PMS_P1;PMS_P2;Temp;Humidity;BMP_temperature;BMP_pressure;BME280_temperature;BME280_humidity;BME280_pressure;Samples;Min_cycle;Max_cycle;Signal;HPM_P1;HPM_P2
2023/04/18 00:06:13;;;;;;;2.05;0.40;;;;;;;;;;20830847;28;20080;-61
2023/04/18 00:16:15;;;;;;;1.98;0.50;;;;;;;;;;20830106;28;20415;-61
2023/04/18 00:26:17;;;;;;;0.73;0.30;;;;;;;;;;20830080;28;20495;-61
2023/04/18 00:36:18;;;;;;;2.10;0.60;;;;;;;;;;20828470;28;20054;-61
2023/04/18 00:46:20;;;;;;;1.23;0.60;;;;;;;;;;20828127;28;20107;-62
2023/04/18 00:56:22;;;;;;;2.40;0.55;;;;;;;;;;20839013;28;20077;-62
2023/04/18 01:06:25;;;;;;;1.52;0.50;;;;;;;;;;20843155;28;20076;-62
2023/04/18 01:16:28;;;;;;;1.90;0.40;;;;;;;;;;20842105;28;20507;-62
2023/04/18 01:26:30;;;;;;;1.10;0.55;;;;;;;;;;20841720;28;20119;-61
2023/04/18 01:36:32;;;;;;;2.22;0.50;;;;;;;;;;20840990;28;20053;-62
2023/04/18 01:46:34;;;;;;;1.50;0.52;;;;;;;;;;20840415;28;20052;-62
2023/04/18 01:56:36;;;;;;;2.35;0.60;;;;;;;;;;20839456;28;20052;-62
2023/04/18 02:06:38;;;;;;;1.85;0.60;;;;;;;;;;20836958;28;20053;-62
2023/04/18 02:16:40;;;;;;;0.85;0.50;;;;;;;;;;20837945;28;20064;-61
2023/04/18 02:26:41;;;;;;;1.00;0.43;;;;;;;;;;20837153;28;20060;-62
2023/04/18 02:36:43;;;;;;;1.40;0.50;;;;;;;;;;20834980;28;20053;-61
2023/04/18 02:46:45;;;;;;;0.85;0.57;;;;;;;;;;20835715;28;20041;-61
2023/04/18 02:56:47;;;;;;;1.48;0.40;;;;;;;;;;20834728;28;20045;-62
2023/04/18 03:06:49;;;;;;;0.80;0.45;;;;;;;;;;20832991;28;20084;-62
2023/04/18 03:16:50;;;;;;;3.08;0.65;;;;;;;;;;20832216;28;20493;-62
2023/04/18 03:26:52;;;;;;;1.30;0.50;;;;;;;;;;20832990;28;20046;-61
2023/04/18 03:36:54;;;;;;;0.88;0.52;;;;;;;;;;20832363;28;20045;-61
2023/04/18 03:46:56;;;;;;;0.90;0.70;;;;;;;;;;20832352;28;20045;-62
2023/04/18 03:56:58;;;;;;;2.35;0.70;;;;;;;;;;20830480;28;20099;-60
2023/04/18 04:07:00;;;;;;;3.03;0.75;;;;;;;;;;20830884;28;20060;-61
2023/04/18 04:17:02;;;;;;;1.52;0.60;;;;;;;;;;20830414;28;20502;-61
2023/04/18 04:27:04;;;;;;;2.47;0.73;;;;;;;;;;20834304;28;20053;-60
2023/04/18 04:37:07;;;;;;;1.38;0.80;;;;;;;;;;20845692;28;20041;-62
2023/04/18 04:47:08;;;;;;;1.48;0.80;;;;;;;;;;20844977;28;20085;-61
2023/04/18 04:57:10;;;;;;;4.93;0.90;;;;;;;;;;20844259;28;20049;-60
2023/04/18 05:07:12;;;;;;;1.67;1.02;;;;;;;;;;20843509;28;20107;-60
2023/04/18 05:17:13;;;;;;;2.90;1.20;;;;;;;;;;20842268;28;20057;-61
2023/04/18 05:27:15;;;;;;;1.25;0.75;;;;;;;;;;20841934;28;20045;-60
2023/04/18 05:37:17;;;;;;;3.08;0.90;;;;;;;;;;20840191;28;20046;-61
2023/04/18 05:47:19;;;;;;;4.60;1.05;;;;;;;;;;20839274;28;20060;-61
2023/04/18 05:57:21;;;;;;;2.30;1.35;;;;;;;;;;20839684;28;20108;-61
2023/04/18 06:07:24;;;;;;;2.45;1.10;;;;;;;;;;20838682;28;20518;-61
2023/04/18 06:17:25;;;;;;;1.50;1.00;;;;;;;;;;20837275;28;20053;-60
2023/04/18 06:27:27;;;;;;;1.65;1.10;;;;;;;;;;20836886;28;20050;-61
2023/04/18 06:37:29;;;;;;;2.40;1.00;;;;;;;;;;20834829;28;20048;-61
2023/04/18 06:47:31;;;;;;;2.85;1.00;;;;;;;;;;20833642;28;20053;-61
2023/04/18 06:57:33;;;;;;;4.55;1.20;;;;;;;;;;20832170;28;20060;-61
2023/04/18 07:07:35;;;;;;;3.95;1.20;;;;;;;;;;20832086;28;20490;-61
2023/04/18 07:17:36;;;;;;;3.38;0.98;;;;;;;;;;20831390;28;20060;-60
2023/04/18 07:27:38;;;;;;;2.67;1.23;;;;;;;;;;20830798;28;20045;-60
2023/04/18 07:37:40;;;;;;;1.73;0.98;;;;;;;;;;20831119;28;20045;-61
2023/04/18 07:47:42;;;;;;;3.88;1.50;;;;;;;;;;20831091;28;20053;-61
2023/04/18 07:57:49;;;;;;;2.47;1.05;;;;;;;;;;20829908;28;20446;-62
2023/04/18 08:07:51;;;;;;;1.80;0.90;;;;;;;;;;20843894;28;20045;-62
2023/04/18 08:17:53;;;;;;;1.92;0.80;;;;;;;;;;20845806;28;20080;-65
2023/04/18 08:27:55;;;;;;;4.47;1.27;;;;;;;;;;20838217;28;20051;-68
2023/04/18 08:37:56;;;;;;;2.75;0.80;;;;;;;;;;20835546;28;20045;-68
2023/04/18 08:48:00;;;;;;;4.00;1.45;;;;;;;;;;20856079;28;20480;-67
2023/04/18 08:58:04;;;;;;;5.22;1.40;;;;;;;;;;20873944;28;20045;-63
2023/04/18 09:08:21;;;;;;;3.28;0.90;;;;;;;;;;20845990;28;20045;-72
2023/04/18 09:18:23;;;;;;;1.90;1.02;;;;;;;;;;20837045;28;20053;-67
2023/04/18 09:28:26;;;;;;;3.30;1.10;;;;;;;;;;20836727;28;20114;-72
2023/04/18 09:38:40;;;;;;;2.05;1.00;;;;;;;;;;20839832;28;20068;-73
2023/04/18 09:48:43;;;;;;;2.22;1.20;;;;;;;;;;20903200;28;20052;-70
2023/04/18 09:58:46;;;;;;;5.97;1.55;;;;;;;;;;20910563;28;20041;-70
2023/04/18 10:08:49;;;;;;;3.63;0.80;;;;;;;;;;20912136;28;20045;-68
2023/04/18 10:18:51;;;;;;;1.45;0.90;;;;;;;;;;20918871;28;20060;-64
2023/04/18 10:28:55;;;;;;;4.13;1.48;;;;;;;;;;20918444;28;20064;-69
2023/04/18 10:39:04;;;;;;;16.35;2.42;;;;;;;;;;20920404;28;20474;-76
2023/04/18 10:49:12;;;;;;;3.08;1.30;;;;;;;;;;20919411;28;20516;-67
2023/04/18 10:59:14;;;;;;;6.13;1.53;;;;;;;;;;20915528;28;20060;-67
2023/04/18 11:09:16;;;;;;;33.30;3.83;;;;;;;;;;20916758;28;20049;-71
2023/04/18 11:19:19;;;;;;;29.10;3.17;;;;;;;;;;20914385;28;20506;-66
2023/04/18 11:29:21;;;;;;;6.30;1.63;;;;;;;;;;20911228;28;20099;-68
2023/04/18 11:39:23;;;;;;;12.23;1.98;;;;;;;;;;20905680;28;20051;-66
2023/04/18 11:49:29;;;;;;;8.68;1.10;;;;;;;;;;20902620;28;20041;-70
2023/04/18 11:59:31;;;;;;;4.75;1.33;;;;;;;;;;20912423;28;20049;-69
2023/04/18 12:09:38;;;;;;;7.55;1.13;;;;;;;;;;20886805;28;20049;-73
2023/04/18 12:19:44;;;;;;;4.53;1.45;;;;;;;;;;20884369;28;20064;-63
2023/04/18 12:29:46;;;;;;;4.85;1.25;;;;;;;;;;20911513;28;20048;-64
2023/04/18 12:39:47;;;;;;;4.28;1.10;;;;;;;;;;20911812;28;20045;-63
2023/04/18 12:49:49;;;;;;;2.05;0.40;;;;;;;;;;20916631;28;20045;-64
2023/04/18 12:59:51;;;;;;;2.97;0.80;;;;;;;;;;20925597;28;20126;-63
2023/04/18 13:09:53;;;;;;;2.45;0.70;;;;;;;;;;20925405;28;20072;-65
2023/04/18 13:19:55;;;;;;;4.80;1.60;;;;;;;;;;20924847;28;20501;-65
2023/04/18 13:29:57;;;;;;;5.38;2.30;;;;;;;;;;20923043;28;20045;-63
2023/04/18 13:39:58;;;;;;;7.57;3.25;;;;;;;;;;20923740;28;20462;-66
2023/04/18 13:50:00;;;;;;;11.75;3.80;;;;;;;;;;20923071;28;20045;-63
2023/04/18 14:00:02;;;;;;;9.20;3.63;;;;;;;;;;20919742;28;20053;-64
2023/04/18 14:10:04;;;;;;;7.55;3.35;;;;;;;;;;20921090;28;20527;-64
2023/04/18 14:20:07;;;;;;;11.77;2.90;;;;;;;;;;20918948;28;20131;-64
2023/04/18 14:30:09;;;;;;;4.65;2.50;;;;;;;;;;20919603;28;20053;-64
2023/04/18 14:40:11;;;;;;;3.10;1.60;;;;;;;;;;20918903;28;20045;-65
2023/04/18 14:50:14;;;;;;;6.63;1.50;;;;;;;;;;20916870;28;20049;-63
2023/04/18 15:00:16;;;;;;;3.25;1.85;;;;;;;;;;20917380;28;20075;-64
2023/04/18 15:10:18;;;;;;;7.85;1.70;;;;;;;;;;20915326;28;20132;-64
2023/04/18 15:20:20;;;;;;;3.65;1.00;;;;;;;;;;20914503;28;20049;-63
2023/04/18 15:30:22;;;;;;;3.88;1.10;;;;;;;;;;20915303;28;20071;-67
2023/04/18 15:40:23;;;;;;;4.45;0.88;;;;;;;;;;20913436;28;20053;-61
2023/04/18 15:50:25;;;;;;;3.78;0.98;;;;;;;;;;20913702;28;20482;-63
2023/04/18 16:00:27;;;;;;;6.93;1.15;;;;;;;;;;20914141;28;20049;-65
2023/04/18 16:10:29;;;;;;;4.72;0.90;;;;;;;;;;20913365;28;20049;-65
2023/04/18 16:20:32;;;;;;;4.22;1.00;;;;;;;;;;20911550;28;20056;-65
2023/04/18 16:30:33;;;;;;;6.10;2.05;;;;;;;;;;20928801;28;20095;-71
2023/04/18 16:40:35;;;;;;;4.03;0.60;;;;;;;;;;20926842;28;20045;-63
2023/04/18 16:50:37;;;;;;;2.42;0.50;;;;;;;;;;20925875;28;20053;-63
2023/04/18 17:00:39;;;;;;;2.78;0.90;;;;;;;;;;20926196;28;20052;-70
2023/04/18 17:10:41;;;;;;;2.92;0.70;;;;;;;;;;20923117;28;20090;-71
2023/04/18 17:20:43;;;;;;;3.60;0.90;;;;;;;;;;20925490;28;20061;-72
2023/04/18 17:30:45;;;;;;;4.30;0.95;;;;;;;;;;20925196;28;20053;-72
2023/04/18 17:40:47;;;;;;;1.67;0.60;;;;;;;;;;20923226;28;20044;-70
2023/04/18 17:50:48;;;;;;;5.28;1.30;;;;;;;;;;20923512;28;20501;-65
2023/04/18 18:00:50;;;;;;;4.47;1.63;;;;;;;;;;20921773;28;20044;-69
2023/04/18 18:10:52;;;;;;;4.65;1.05;;;;;;;;;;20921147;28;20068;-66
2023/04/18 18:20:54;;;;;;;4.50;1.25;;;;;;;;;;20919007;28;20048;-62
2023/04/18 18:30:55;;;;;;;5.95;3.65;;;;;;;;;;20919499;28;20493;-63
2023/04/18 18:40:58;;;;;;;4.72;1.95;;;;;;;;;;20918745;28;20483;-61
2023/04/18 18:51:00;;;;;;;7.78;2.80;;;;;;;;;;20916495;28;20045;-62
2023/04/18 19:01:02;;;;;;;9.15;3.10;;;;;;;;;;20916703;28;20454;-61
2023/04/18 19:11:04;;;;;;;5.45;2.90;;;;;;;;;;20914532;28;20045;-61
2023/04/18 19:21:06;;;;;;;9.75;3.50;;;;;;;;;;20914735;28;20048;-61
2023/04/18 19:31:08;;;;;;;7.18;3.20;;;;;;;;;;20915193;28;20497;-61
2023/04/18 19:41:10;;;;;;;8.18;4.40;;;;;;;;;;20914065;28;20048;-61
2023/04/18 19:51:12;;;;;;;13.20;5.53;;;;;;;;;;20913818;28;20093;-61
2023/04/18 20:01:14;;;;;;;12.13;5.68;;;;;;;;;;20912113;28;20041;-61
2023/04/18 20:11:16;;;;;;;15.43;8.20;;;;;;;;;;20910609;28;20048;-61
2023/04/18 20:21:17;;;;;;;15.27;7.28;;;;;;;;;;20909538;28;20056;-64
2023/04/18 20:31:19;;;;;;;16.58;7.22;;;;;;;;;;20910624;28;20044;-62
2023/04/18 20:41:23;;;;;;;18.63;9.80;;;;;;;;;;20910086;28;20064;-62
2023/04/18 20:51:25;;;;;;;14.82;5.13;;;;;;;;;;20910587;28;20395;-63
2023/04/18 21:01:27;;;;;;;8.02;3.40;;;;;;;;;;20909948;28;20347;-62
2023/04/18 21:11:29;;;;;;;14.38;3.97;;;;;;;;;;20914837;28;20056;-61
2023/04/18 21:21:33;;;;;;;7.40;2.70;;;;;;;;;;20922375;28;20053;-61
2023/04/18 21:31:34;;;;;;;7.85;1.75;;;;;;;;;;20921736;28;20056;-62
2023/04/18 21:41:36;;;;;;;8.68;1.85;;;;;;;;;;20921182;28;20124;-61
2023/04/18 21:51:38;;;;;;;5.80;1.70;;;;;;;;;;20919346;28;20052;-62
2023/04/18 22:01:40;;;;;;;5.47;1.10;;;;;;;;;;20920831;28;20049;-62
2023/04/18 22:11:41;;;;;;;7.35;1.23;;;;;;;;;;20918783;28;20041;-61
2023/04/18 22:21:43;;;;;;;10.65;2.47;;;;;;;;;;20918148;28;20111;-61
2023/04/18 22:31:45;;;;;;;9.15;1.85;;;;;;;;;;20919127;28;20057;-62
2023/04/18 22:41:46;;;;;;;9.32;2.05;;;;;;;;;;20917938;28;20064;-60
2023/04/18 22:51:53;;;;;;;4.20;1.27;;;;;;;;;;20916155;28;20049;-62
2023/04/18 23:01:54;;;;;;;7.13;1.58;;;;;;;;;;20916699;28;20053;-62
2023/04/18 23:11:57;;;;;;;5.35;1.50;;;;;;;;;;20914557;28;20045;-61
2023/04/18 23:21:59;;;;;;;6.28;1.55;;;;;;;;;;20915787;28;20068;-61
2023/04/18 23:32:01;;;;;;;5.35;1.50;;;;;;;;;;20914794;28;20458;-60
2023/04/18 23:42:02;;;;;;;5.40;1.60;;;;;;;;;;20914177;28;20071;-62
2023/04/18 23:52:05;;;;;;;5.25;1.15;;;;;;;;;;20913097;28;20049;-62
